Turpin, OK (73950)

10:43 AM CDT on October 25, 2014 (GMT -0500)
Turpin School District I-128 | Change Station
CLOSE
Current Station
Personal Weather Station
Location: Turpin, OK
Elevation: 2769 ft
Nearby Weather Stations

Elev 2769 ft 36.86 °N, 100.88 °W | Updated 2 minutes ago

Clear
Clear
64.0 °F
Feels Like 64.0 °F
N
3.1
Wind Variable Wind from WSW
Gusts 5.0 mph

Today
High -- | Low -- °F
--% Chance of Precip.
Yesterday
High -- | Low -- °F
Precip. -- in
8:00 AM 6:53 PM
Waxing Crescent, 3% visible
Pressure 30.14 in
Visibility 10.0 miles
Clouds Clear
Dew Point 47 °F
Humidity 53%
Rainfall 0.00 in
Snow Depth Not available.
UV 2 out of 12
Pollen 3.50 out of 12
Air Quality Not available.
Flu Activity Sporadic
METAR KLBL 251535Z AUTO 23003KT 10SM CLR 19/07 A3014 RMK AO1

More Conditions Fewer Conditions

Pressure 30.14 in
Visibility 10.0 miles
Clouds Clear
Dew Point 47 °F
Humidity 53%
Rainfall 0.00 in
Snow Depth Not available.
UV 2 out of 12
Pollen 3.50 out of 12
Air Quality Not available.
Flu Activity Sporadic
METAR KLBL 251535Z AUTO 23003KT 10SM CLR 19/07 A3014 RMK AO1

More Conditions Fewer Conditions

10-Day Weather Forecast

Almanac

Astronomy

Oct. 25, 2014 Rise Set
Actual Time 8:00 AM CDT 6:53 PM CDT
Civil Twilight 7:33 AM CDT 7:20 PM CDT
Nautical Twilight 7:03 AM CDT 7:50 PM CDT
Astronomical Twilight 6:33 AM CDT 8:20 PM CDT
Moon 9:39 AM CDT 8:20 PM CDT
Length of Visible Light 11h 46m
Length of Day
10h 53m
Tomorrow will be 2m 9s shorter.
Waxing Crescent, 3% of the Moon is Illuminated
Today
Waxing Crescent
Oct 30
First Quarter
Nov 6
Full
Nov 14
Last Quarter
Nov 22
New

Today's Extremes

State Highs State Lows

Community

WunderPhotos

Upload Photos

1,764,879 photos uploaded!

Nearby

Snow Depth

Station Depth Elevation
No new snow has been reported.

Earthquake Activity

City Distance Mag. Time & Date
Mooreland, Oklahoma 98 miles 2.5 2:43 PM CDT
2014-10-24
Mooreland, Oklahoma 103 miles 2.5 12:39 PM CDT
2014-10-24
Mooreland, Oklahoma 106 miles 2.8 5:31 PM CDT
2014-10-22
Mooreland, Oklahoma 101 miles 2.5 11:19 AM CDT
2014-10-22
Minimum magnitude displayed is 2.5.

Coastal Water Temperatures

Place Temperature
No Stations Reporting

Nearby Weather Stations